createdAt,value
2023-01-20T00:00:32.412Z,95470.06
2023-01-20T00:02:59.953Z,95468.66
2023-01-20T00:05:28.797Z,95462.88
2023-01-20T00:07:56.267Z,95463.59
2023-01-20T00:10:23.760Z,95457.03
2023-01-20T00:12:51.233Z,95470.13
2023-01-20T00:15:18.727Z,95462.72
2023-01-20T00:17:46.234Z,95471.19
2023-01-20T00:20:13.975Z,95452.97
2023-01-20T00:22:42.828Z,95457.25
2023-01-20T00:25:11.786Z,95453.69
2023-01-20T00:27:39.665Z,95456.78
2023-01-20T00:30:08.633Z,95458.97
2023-01-20T00:32:39.053Z,95456.69
2023-01-20T00:35:07.738Z,95472.31
2023-01-20T00:37:35.224Z,95477.16
2023-01-20T00:40:04.497Z,95483.88
2023-01-20T00:42:32.029Z,95475.44
2023-01-20T00:44:59.780Z,95486.06
2023-01-20T00:47:27.248Z,95482.06
2023-01-20T00:49:54.792Z,95489.91
2023-01-20T00:52:22.507Z,95498.22
2023-01-20T00:54:50.008Z,95496.19
2023-01-20T00:57:18.860Z,95502.28
2023-01-20T00:59:46.351Z,95511.94
2023-01-20T01:02:13.955Z,95499.47
2023-01-20T01:04:41.677Z,95503.50
2023-01-20T01:07:09.181Z,95506.69
2023-01-20T01:09:36.694Z,95508.75
2023-01-20T01:12:04.429Z,95510.69
2023-01-20T01:14:33.554Z,95510.97
2023-01-20T01:17:01.067Z,95516.75
2023-01-20T01:19:28.539Z,95513.69
2023-01-20T01:21:56.026Z,95504.38
2023-01-20T01:24:23.528Z,95513.78
2023-01-20T01:26:51.010Z,95513.59
2023-01-20T01:29:18.530Z,95519.59
2023-01-20T01:31:47.357Z,95524.13
2023-01-20T01:34:15.205Z,95524.97
2023-01-20T01:36:42.979Z,95527.44
2023-01-20T01:39:10.560Z,95525.78
2023-01-20T01:41:38.116Z,95517.22
2023-01-20T01:44:09.286Z,95533.03
2023-01-20T01:46:37.208Z,95530.00
2023-01-20T01:49:11.190Z,95533.91
2023-01-20T01:51:42.299Z,95524.16
2023-01-20T01:54:15.831Z,95523.69
2023-01-20T01:56:45.530Z,95529.50
2023-01-20T01:59:16.080Z,95530.09
2023-01-20T02:01:49.383Z,95530.59
2023-01-20T02:04:21.972Z,95526.25
2023-01-20T02:06:52.511Z,95524.31
2023-01-20T02:09:20.161Z,95522.66
2023-01-20T02:11:52.167Z,95519.56
2023-01-20T02:14:22.641Z,95519.28
2023-01-20T02:17:00.040Z,95521.81
2023-01-20T02:20:02.902Z,95518.78
2023-01-20T02:22:41.563Z,95521.06
2023-01-20T02:25:45.129Z,95517.09
2023-01-20T02:28:52.700Z,95510.13
2023-01-20T02:32:09.923Z,95511.69
2023-01-20T02:34:45.232Z,95500.72
2023-01-20T02:37:16.452Z,95507.28
2023-01-20T02:39:52.223Z,95504.81
2023-01-20T02:42:25.417Z,95513.78
2023-01-20T02:44:57.274Z,95516.69
2023-01-20T02:47:30.946Z,95512.31
2023-01-20T02:50:07.727Z,95508.22
2023-01-20T02:52:39.425Z,95510.97
2023-01-20T02:55:10.403Z,95514.22
2023-01-20T02:57:47.719Z,95519.59
2023-01-20T03:00:18.974Z,95516.94
2023-01-20T03:02:51.582Z,95516.69
2023-01-20T03:05:23.691Z,95517.25
2023-01-20T03:07:54.245Z,95522.72
2023-01-20T03:10:25.656Z,95526.56
2023-01-20T03:12:57.675Z,95522.38
2023-01-20T03:15:30.870Z,95526.06
2023-01-20T03:17:58.989Z,95537.69
2023-01-20T03:20:27.857Z,95532.72
2023-01-20T03:22:55.473Z,95535.97
2023-01-20T03:25:24.045Z,95536.66
2023-01-20T03:27:51.533Z,95553.03
2023-01-20T03:30:19.886Z,95552.03
2023-01-20T03:32:50.789Z,95556.84
2023-01-20T03:35:18.942Z,95555.75
2023-01-20T03:37:47.819Z,95559.75
2023-01-20T03:40:16.469Z,95561.25
2023-01-20T03:42:53.214Z,95561.69
2023-01-20T03:45:30.584Z,95564.63
2023-01-20T03:48:04.750Z,95566.38
2023-01-20T03:50:38.385Z,95570.66
2023-01-20T03:53:19.480Z,95575.09
2023-01-20T03:55:50.875Z,95571.47
2023-01-20T03:58:23.174Z,95585.03
2023-01-20T04:00:52.813Z,95585.06
2023-01-20T04:03:24.296Z,95584.78
2023-01-20T04:05:53.007Z,95585.16
2023-01-20T04:08:25.494Z,95593.19
2023-01-20T04:10:55.660Z,95589.16
2023-01-20T04:13:23.219Z,95584.06
2023-01-20T04:15:51.163Z,95596.69
2023-01-20T04:18:20.838Z,95588.91
2023-01-20T04:20:51.378Z,95596.22
2023-01-20T04:23:26.026Z,95594.88
2023-01-20T04:25:53.532Z,95601.47
2023-01-20T04:28:21.008Z,95603.63
2023-01-20T04:30:49.081Z,95614.25
2023-01-20T04:33:16.629Z,95611.81
2023-01-20T04:35:44.142Z,95614.50
2023-01-20T04:38:11.656Z,95619.81
2023-01-20T04:40:40.608Z,95616.41
2023-01-20T04:43:09.984Z,95615.25
2023-01-20T04:45:37.488Z,95609.50
2023-01-20T04:48:07.121Z,95619.78
2023-01-20T04:50:34.963Z,95618.63
2023-01-20T04:53:02.424Z,95625.31
2023-01-20T04:55:29.900Z,95623.31
2023-01-20T04:57:58.714Z,95627.28
2023-01-20T05:00:26.208Z,95628.97
2023-01-20T05:02:53.830Z,95634.34
2023-01-20T05:05:21.364Z,95638.13
2023-01-20T05:07:52.938Z,95638.88
2023-01-20T05:10:20.486Z,95638.91
2023-01-20T05:12:48.056Z,95645.56
2023-01-20T05:15:17.402Z,95646.59
2023-01-20T05:17:44.984Z,95651.38
2023-01-20T05:20:12.731Z,95652.78
2023-01-20T05:22:40.228Z,95667.66
2023-01-20T05:25:08.569Z,95659.94
2023-01-20T05:27:36.233Z,95666.13
2023-01-20T05:30:03.844Z,95666.91
2023-01-20T05:32:32.666Z,95682.63
2023-01-20T05:35:00.373Z,95681.53
2023-01-20T05:37:27.837Z,95680.56
2023-01-20T05:39:55.381Z,95682.41
2023-01-20T05:42:22.909Z,95676.66
2023-01-20T05:44:50.400Z,95690.44
2023-01-20T05:47:17.926Z,95682.53
2023-01-20T05:49:46.775Z,95682.00
2023-01-20T05:52:14.278Z,95685.56
2023-01-20T05:54:41.736Z,95688.63
2023-01-20T05:57:09.421Z,95693.47
2023-01-20T05:59:36.978Z,95692.72
2023-01-20T06:02:04.473Z,95697.25
2023-01-20T06:04:31.972Z,95694.66
2023-01-20T06:07:00.788Z,95698.09
2023-01-20T06:09:28.300Z,95700.34
2023-01-20T06:11:55.794Z,95701.22
2023-01-20T06:14:23.300Z,95694.75
2023-01-20T06:16:50.944Z,95703.75
2023-01-20T06:19:18.449Z,95697.28
2023-01-20T06:21:46.957Z,95701.53
2023-01-20T06:24:16.248Z,95701.53
2023-01-20T06:26:43.733Z,95703.59
2023-01-20T06:29:11.269Z,95706.09
2023-01-20T06:31:38.852Z,95714.66
2023-01-20T06:34:06.388Z,95710.81
2023-01-20T06:36:33.859Z,95717.03
2023-01-20T06:39:01.389Z,95716.50
2023-01-20T06:41:30.305Z,95718.88
2023-01-20T06:43:58.039Z,95719.66
2023-01-20T06:46:25.934Z,95720.25
2023-01-20T06:49:00.031Z,95725.75
2023-01-20T06:51:29.566Z,95727.69
2023-01-20T06:53:57.838Z,95730.44
2023-01-20T06:56:25.685Z,95725.72
2023-01-20T06:58:54.502Z,95744.41
2023-01-20T07:01:25.042Z,95736.44
2023-01-20T07:03:53.187Z,95746.72
2023-01-20T07:06:26.861Z,95749.84
2023-01-20T07:08:54.642Z,95754.25
2023-01-20T07:11:22.164Z,95753.44
2023-01-20T07:13:49.657Z,95753.69
2023-01-20T07:16:18.528Z,95760.53
2023-01-20T07:18:49.190Z,95766.25
2023-01-20T07:21:16.880Z,95771.47
2023-01-20T07:23:44.635Z,95775.41
2023-01-20T07:26:14.423Z,95781.50
2023-01-20T07:28:41.999Z,95782.59
2023-01-20T07:31:11.051Z,95779.47
2023-01-20T07:33:40.021Z,95785.47
2023-01-20T07:36:08.858Z,95786.78
2023-01-20T07:38:36.699Z,95793.91
2023-01-20T07:41:06.125Z,95799.72
2023-01-20T07:43:34.072Z,95794.94
2023-01-20T07:46:03.612Z,95808.59
2023-01-20T07:48:33.081Z,95809.88
2023-01-20T07:51:05.591Z,95819.78
2023-01-20T07:53:35.251Z,95813.66
2023-01-20T07:56:03.939Z,95817.78
2023-01-20T07:58:31.747Z,95818.63
2023-01-20T08:01:06.550Z,95817.06
2023-01-20T08:03:34.065Z,95817.47
2023-01-20T08:06:04.521Z,95822.44
2023-01-20T08:08:32.627Z,95821.88
2023-01-20T08:11:01.317Z,95825.13
2023-01-20T08:13:29.188Z,95827.69
2023-01-20T08:16:00.496Z,95829.97
2023-01-20T08:18:28.089Z,95827.75
2023-01-20T08:20:55.664Z,95836.56
2023-01-20T08:23:24.526Z,95836.31
2023-01-20T08:25:59.755Z,95842.69
2023-01-20T08:28:27.886Z,95841.31
2023-01-20T08:30:55.548Z,95845.59
2023-01-20T08:33:23.092Z,95852.06
2023-01-20T08:35:50.617Z,95851.22
2023-01-20T08:38:18.107Z,95846.09
2023-01-20T08:40:46.905Z,95847.88
2023-01-20T08:43:15.823Z,95856.38
2023-01-20T08:45:44.543Z,95864.94
2023-01-20T08:48:12.032Z,95860.81
2023-01-20T08:50:39.585Z,95857.34
2023-01-20T08:53:07.083Z,95861.19
2023-01-20T08:55:34.561Z,95873.69
2023-01-20T08:58:03.421Z,95869.81
2023-01-20T09:00:31.088Z,95874.91
2023-01-20T09:02:58.589Z,95874.25
2023-01-20T09:05:27.143Z,95882.81
2023-01-20T09:07:54.637Z,95883.50
2023-01-20T09:10:22.202Z,95887.53
2023-01-20T09:12:49.732Z,95882.50
2023-01-20T09:15:20.503Z,95882.84
2023-01-20T09:17:48.043Z,95885.69
2023-01-20T09:20:16.103Z,95897.03
2023-01-20T09:22:43.611Z,95902.06
2023-01-20T09:25:11.523Z,95899.97
2023-01-20T09:27:38.993Z,95908.00
2023-01-20T09:30:07.415Z,95908.19
2023-01-20T09:32:36.228Z,95907.06
2023-01-20T09:35:03.734Z,95914.09
2023-01-20T09:37:48.796Z,95906.47
2023-01-20T09:40:37.164Z,95914.34
2023-01-20T09:43:26.482Z,95915.31
2023-01-20T09:45:57.555Z,95908.78
2023-01-20T09:48:51.413Z,95918.69
2023-01-20T09:51:48.413Z,95917.91
2023-01-20T09:54:21.479Z,95918.88
2023-01-20T09:56:53.422Z,95922.94
2023-01-20T09:59:25.868Z,95928.34
2023-01-20T10:01:57.857Z,95926.97
2023-01-20T10:04:33.821Z,95927.63
2023-01-20T10:07:08.031Z,95922.66
2023-01-20T10:09:42.066Z,95929.81
2023-01-20T10:12:13.795Z,95923.69
2023-01-20T10:14:45.799Z,95929.16
2023-01-20T10:17:17.473Z,95933.63
2023-01-20T10:19:50.913Z,95928.19
2023-01-20T10:22:23.321Z,95937.81
2023-01-20T10:24:56.391Z,95939.56
2023-01-20T10:27:27.516Z,95943.53
2023-01-20T10:30:00.136Z,95941.91
2023-01-20T10:32:33.938Z,95942.69
2023-01-20T10:35:10.805Z,95937.06
2023-01-20T10:37:38.889Z,95939.44
2023-01-20T10:40:16.660Z,95943.91
2023-01-20T10:42:48.496Z,95940.44
2023-01-20T10:45:26.402Z,95937.50
2023-01-20T10:48:07.076Z,95946.72
2023-01-20T10:50:57.061Z,95936.03
2023-01-20T10:53:46.798Z,95933.38
2023-01-20T10:56:32.865Z,95937.03
2023-01-20T10:59:04.226Z,95932.03
2023-01-20T11:01:31.786Z,95934.84
2023-01-20T11:03:59.305Z,95930.28
2023-01-20T11:06:28.491Z,95936.84
2023-01-20T11:08:57.557Z,95936.16
2023-01-20T11:11:26.733Z,95937.66
2023-01-20T11:13:54.979Z,95934.50
2023-01-20T11:16:25.175Z,95931.38
2023-01-20T11:18:58.655Z,95938.50
2023-01-20T11:21:29.756Z,95943.44
2023-01-20T11:23:58.515Z,95941.25
2023-01-20T11:26:28.805Z,95940.41
2023-01-20T11:28:58.813Z,95936.81
2023-01-20T11:31:37.858Z,95943.16
2023-01-20T11:34:20.930Z,95935.59
2023-01-20T11:36:50.121Z,95947.91
2023-01-20T11:39:30.146Z,95943.88
2023-01-20T11:42:13.142Z,95948.84
2023-01-20T11:44:44.233Z,95932.59
2023-01-20T11:47:23.467Z,95949.09
2023-01-20T11:50:20.749Z,95952.84
2023-01-20T11:52:49.549Z,95952.06
2023-01-20T11:55:19.164Z,95945.75
2023-01-20T11:57:52.024Z,95946.53
2023-01-20T12:00:41.628Z,95949.91
2023-01-20T12:03:32.158Z,95953.13
2023-01-20T12:06:04.410Z,95953.25
2023-01-20T12:08:42.146Z,95959.63
2023-01-20T12:11:12.684Z,95959.72
2023-01-20T12:13:59.532Z,95968.66
2023-01-20T12:16:31.673Z,95955.03
2023-01-20T12:19:04.687Z,95954.09
2023-01-20T12:21:37.659Z,95959.63
2023-01-20T12:24:19.531Z,95962.63
2023-01-20T12:26:47.265Z,95963.44
2023-01-20T12:29:20.387Z,95969.06
2023-01-20T12:31:49.263Z,95973.34
2023-01-20T12:34:21.202Z,95974.53
2023-01-20T12:37:10.420Z,95966.94
2023-01-20T12:40:04.308Z,95970.41
2023-01-20T12:43:01.454Z,95976.47
2023-01-20T12:45:46.031Z,95975.28
2023-01-20T12:48:26.650Z,95973.44
2023-01-20T12:51:06.561Z,95975.13
2023-01-20T12:53:45.267Z,95966.31
2023-01-20T12:56:25.812Z,95972.44
2023-01-20T12:59:02.009Z,95971.41
2023-01-20T13:01:41.005Z,95976.19
2023-01-20T13:04:49.832Z,95969.72
2023-01-20T13:07:31.726Z,95979.19
2023-01-20T13:10:17.646Z,95980.84
2023-01-20T13:12:52.880Z,95980.56
2023-01-20T13:15:27.793Z,95987.69
2023-01-20T13:18:14.902Z,95988.88
2023-01-20T13:20:45.480Z,95986.88
2023-01-20T13:23:16.209Z,95983.81
2023-01-20T13:25:46.454Z,95988.34
2023-01-20T13:28:19.257Z,95993.22
2023-01-20T13:30:50.857Z,96001.22
2023-01-20T13:33:31.396Z,96001.34
2023-01-20T13:36:00.144Z,96002.47
2023-01-20T13:38:30.875Z,96007.75
2023-01-20T13:41:03.119Z,96008.53
2023-01-20T13:43:53.195Z,96003.88
2023-01-20T13:46:46.136Z,96007.00
2023-01-20T13:49:47.155Z,96010.59
2023-01-20T13:52:14.751Z,96012.72
2023-01-20T13:54:44.999Z,96010.09
2023-01-20T13:57:38.063Z,96017.94
2023-01-20T14:00:24.898Z,96026.16
2023-01-20T14:02:53.119Z,96021.72
2023-01-20T14:05:30.359Z,96023.88
2023-01-20T14:07:58.531Z,96027.84
2023-01-20T14:10:26.798Z,96026.31
2023-01-20T14:12:54.309Z,96037.38
2023-01-20T14:15:36.826Z,96035.06
2023-01-20T14:18:05.582Z,96035.47
2023-01-20T14:20:33.420Z,96038.03
2023-01-20T14:23:27.061Z,96043.53
2023-01-20T14:25:59.324Z,96046.69
2023-01-20T14:28:26.993Z,96044.06
2023-01-20T14:31:34.032Z,96051.75
2023-01-20T14:34:04.868Z,96070.25
2023-01-20T14:36:34.000Z,96057.06
2023-01-20T14:39:04.281Z,96069.19
2023-01-20T14:41:46.233Z,96071.25
2023-01-20T14:44:17.724Z,96069.41
2023-01-20T14:46:48.576Z,96081.91
2023-01-20T14:49:18.048Z,96082.50
2023-01-20T14:51:47.541Z,96087.34
2023-01-20T14:54:34.877Z,96091.47
2023-01-20T14:57:13.441Z,96087.69
2023-01-20T14:59:40.949Z,96098.31
2023-01-20T15:02:20.023Z,96097.66
2023-01-20T15:04:47.596Z,96101.34
2023-01-20T15:07:20.366Z,96114.09
2023-01-20T15:09:54.199Z,96106.41
2023-01-20T15:12:37.798Z,96114.06
2023-01-20T15:15:20.072Z,96122.63
2023-01-20T15:18:21.425Z,96123.84
2023-01-20T15:21:00.960Z,96118.16
2023-01-20T15:23:38.080Z,96130.56
2023-01-20T15:26:10.479Z,96125.44
2023-01-20T15:28:43.926Z,96128.34
2023-01-20T15:31:14.869Z,96127.25
2023-01-20T15:33:42.957Z,96137.28
2023-01-20T15:36:27.405Z,96139.56
2023-01-20T15:38:55.171Z,96146.00
2023-01-20T15:41:22.830Z,96145.31
2023-01-20T15:43:52.326Z,96149.84
2023-01-20T15:46:20.202Z,96151.94
2023-01-20T15:48:48.105Z,96153.94
2023-01-20T15:51:17.297Z,96158.00
2023-01-20T15:53:46.964Z,96153.94
2023-01-20T15:56:20.398Z,96164.91
2023-01-20T15:58:48.801Z,96163.44
2023-01-20T16:01:18.088Z,96162.41
2023-01-20T16:03:45.801Z,96158.03
2023-01-20T16:06:15.582Z,96166.25
2023-01-20T16:08:46.097Z,96169.22
2023-01-20T16:11:15.318Z,96177.13
2023-01-20T16:13:42.984Z,96176.38
2023-01-20T16:16:13.339Z,96176.94
2023-01-20T16:18:41.357Z,96174.31
2023-01-20T16:21:10.856Z,96175.97
2023-01-20T16:23:38.377Z,96175.72
2023-01-20T16:26:20.429Z,96186.97
2023-01-20T16:28:47.921Z,96184.44
2023-01-20T16:31:15.986Z,96189.25
2023-01-20T16:33:43.618Z,96189.88
2023-01-20T16:36:13.046Z,96193.63
2023-01-20T16:38:40.603Z,96191.94
2023-01-20T16:41:14.963Z,96193.13
2023-01-20T16:43:44.231Z,96191.75
2023-01-20T16:46:14.566Z,96195.28
2023-01-20T16:48:42.280Z,96198.41
2023-01-20T16:51:13.261Z,96204.66
2023-01-20T16:53:40.990Z,96204.47
2023-01-20T16:56:14.022Z,96206.91
2023-01-20T16:58:41.711Z,96213.09
2023-01-20T17:01:12.673Z,96207.50
2023-01-20T17:03:40.313Z,96218.31
2023-01-20T17:06:11.907Z,96215.38
2023-01-20T17:08:39.450Z,96222.16
2023-01-20T17:11:06.946Z,96222.06
2023-01-20T17:13:34.451Z,96233.03
2023-01-20T17:16:02.797Z,96235.56
2023-01-20T17:18:31.637Z,96238.16
2023-01-20T17:21:04.767Z,96241.25
2023-01-20T17:23:32.435Z,96242.00
2023-01-20T17:26:01.980Z,96242.66
2023-01-20T17:28:29.551Z,96244.88
2023-01-20T17:31:02.024Z,96244.63
2023-01-20T17:33:31.270Z,96249.97
2023-01-20T17:36:00.698Z,96238.81
2023-01-20T17:38:28.724Z,96251.19
2023-01-20T17:41:00.364Z,96258.38
2023-01-20T17:43:32.397Z,96256.53
2023-01-20T17:46:00.135Z,96259.88
2023-01-20T17:48:27.715Z,96259.09
2023-01-20T17:50:59.075Z,96264.63
2023-01-20T17:53:27.207Z,96265.13
2023-01-20T17:56:06.647Z,96269.50
2023-01-20T17:58:39.807Z,96264.59
2023-01-20T18:01:12.428Z,96264.31
2023-01-20T18:03:41.949Z,96268.63
2023-01-20T18:06:13.340Z,96277.53
2023-01-20T18:08:41.301Z,96282.97
2023-01-20T18:11:10.875Z,96276.16
2023-01-20T18:13:39.073Z,96283.88
2023-01-20T18:16:08.066Z,96283.03
2023-01-20T18:18:35.626Z,96282.94
2023-01-20T18:21:12.015Z,96290.59
2023-01-20T18:23:40.162Z,96289.00
2023-01-20T18:26:09.134Z,96290.56
2023-01-20T18:28:37.997Z,96289.25
2023-01-20T18:31:08.911Z,96286.56
2023-01-20T18:33:39.647Z,96292.81
2023-01-20T18:36:08.806Z,96293.00
2023-01-20T18:38:42.920Z,96292.28
2023-01-20T18:41:10.836Z,96294.34
2023-01-20T18:43:39.183Z,96292.00
2023-01-20T18:46:07.635Z,96282.63
2023-01-20T18:48:38.475Z,96289.25
2023-01-20T18:51:06.505Z,96290.66
2023-01-20T18:53:34.237Z,96283.94
2023-01-20T18:56:04.163Z,96289.16
2023-01-20T18:58:31.720Z,96298.25
2023-01-20T19:01:04.161Z,96296.25
2023-01-20T19:03:31.709Z,96297.38
2023-01-20T19:06:04.956Z,96295.03
2023-01-20T19:08:32.798Z,96296.78
2023-01-20T19:11:01.606Z,96298.16
2023-01-20T19:13:30.688Z,96299.47
2023-01-20T19:15:58.786Z,96300.41
2023-01-20T19:18:26.776Z,96306.78
2023-01-20T19:20:54.545Z,96306.78
2023-01-20T19:23:22.203Z,96307.69
2023-01-20T19:26:00.583Z,96315.44
2023-01-20T19:28:28.136Z,96321.00
2023-01-20T19:30:57.221Z,96311.44
2023-01-20T19:33:24.757Z,96319.03
2023-01-20T19:35:52.264Z,96316.81
2023-01-20T19:38:19.764Z,96327.47
2023-01-20T19:40:47.236Z,96326.53
2023-01-20T19:43:14.738Z,96339.06
2023-01-20T19:45:45.844Z,96327.25
2023-01-20T19:48:15.036Z,96335.16
2023-01-20T19:50:42.965Z,96338.66
2023-01-20T19:53:10.621Z,96336.16
2023-01-20T19:55:38.091Z,96332.66
2023-01-20T19:58:06.247Z,96335.78
2023-01-20T20:00:33.757Z,96334.78
2023-01-20T20:03:02.876Z,96344.09
2023-01-20T20:05:32.682Z,96338.22
2023-01-20T20:08:00.225Z,96341.94
2023-01-20T20:10:27.710Z,96340.44
2023-01-20T20:12:55.230Z,96355.34
2023-01-20T20:15:22.725Z,96347.91
2023-01-20T20:17:50.254Z,96348.81
2023-01-20T20:20:18.394Z,96360.19
2023-01-20T20:22:47.448Z,96362.22
2023-01-20T20:25:15.014Z,96366.69
2023-01-20T20:27:42.546Z,96366.53
2023-01-20T20:30:11.436Z,96356.72
2023-01-20T20:32:38.945Z,96361.31
2023-01-20T20:35:07.228Z,96356.66
2023-01-20T20:37:34.831Z,96363.34
2023-01-20T20:40:04.032Z,96356.94
2023-01-20T20:42:32.532Z,96358.13
2023-01-20T20:45:00.027Z,96366.91
2023-01-20T20:47:27.511Z,96369.28
2023-01-20T20:49:54.990Z,96356.94
2023-01-20T20:52:22.446Z,96357.22
2023-01-20T20:54:50.545Z,96355.91
2023-01-20T20:57:19.389Z,96369.31
2023-01-20T20:59:58.559Z,96366.06
2023-01-20T21:02:26.931Z,96359.41
2023-01-20T21:04:54.958Z,96361.09
2023-01-20T21:07:22.416Z,96365.16
2023-01-20T21:09:49.900Z,96357.75
2023-01-20T21:12:18.901Z,96356.91
2023-01-20T21:14:46.412Z,96364.66
2023-01-20T21:17:13.916Z,96367.81
2023-01-20T21:19:41.403Z,96369.41
2023-01-20T21:22:08.932Z,96371.66
2023-01-20T21:24:36.400Z,96371.31
2023-01-20T21:27:03.977Z,96368.72
2023-01-20T21:29:32.814Z,96367.22
2023-01-20T21:32:00.573Z,96370.22
2023-01-20T21:34:28.050Z,96372.38
2023-01-20T21:36:55.562Z,96372.56
2023-01-20T21:39:23.548Z,96380.25
2023-01-20T21:41:51.045Z,96379.69
2023-01-20T21:44:32.841Z,96384.59
2023-01-20T21:47:03.697Z,96377.41
2023-01-20T21:49:48.859Z,96380.75
2023-01-20T21:52:36.396Z,96381.19
2023-01-20T21:55:04.713Z,96387.66
2023-01-20T21:57:32.671Z,96397.09
2023-01-20T22:00:00.548Z,96398.34
2023-01-20T22:02:30.045Z,96396.72
2023-01-20T22:04:57.633Z,96400.53
2023-01-20T22:07:25.295Z,96400.59
2023-01-20T22:09:52.837Z,96392.66
2023-01-20T22:12:20.337Z,96395.34
2023-01-20T22:14:48.016Z,96402.00
2023-01-20T22:17:15.541Z,96405.88
2023-01-20T22:19:44.708Z,96405.25
2023-01-20T22:22:14.898Z,96409.22
2023-01-20T22:24:42.805Z,96414.81
2023-01-20T22:27:10.354Z,96418.81
2023-01-20T22:29:37.829Z,96417.91
2023-01-20T22:32:05.809Z,96419.91
2023-01-20T22:34:33.397Z,96427.88
2023-01-20T22:37:02.202Z,96435.53
2023-01-20T22:39:29.764Z,96424.16
2023-01-20T22:41:57.301Z,96427.53
2023-01-20T22:44:24.942Z,96432.28
2023-01-20T22:46:52.477Z,96426.13
2023-01-20T22:49:20.124Z,96417.47
2023-01-20T22:51:47.596Z,96430.13
2023-01-20T22:54:16.408Z,96426.53
2023-01-20T22:56:43.913Z,96426.38
2023-01-20T22:59:13.195Z,96424.97
2023-01-20T23:01:40.723Z,96428.47
2023-01-20T23:04:08.222Z,96434.16
2023-01-20T23:06:37.223Z,96435.66
2023-01-20T23:09:07.227Z,96434.44
2023-01-20T23:11:38.240Z,96435.72
2023-01-20T23:14:06.424Z,96428.53
2023-01-20T23:16:33.948Z,96436.09
2023-01-20T23:19:01.489Z,96436.38
2023-01-20T23:21:29.799Z,96439.88
2023-01-20T23:23:57.289Z,96436.59
2023-01-20T23:26:26.818Z,96436.44
2023-01-20T23:28:56.416Z,96437.28
2023-01-20T23:31:25.616Z,96442.91
2023-01-20T23:33:54.463Z,96438.56
2023-01-20T23:36:24.073Z,96438.22
2023-01-20T23:38:53.476Z,96449.19
2023-01-20T23:41:21.039Z,96445.66
2023-01-20T23:43:48.762Z,96446.34
2023-01-20T23:46:17.620Z,96443.66
2023-01-20T23:48:46.584Z,96447.34
2023-01-20T23:51:14.662Z,96448.66
2023-01-20T23:53:42.230Z,96443.47
2023-01-20T23:56:13.197Z,96455.22
2023-01-20T23:58:40.857Z,96456.91
